Gütersloh, Deutschland

08:21 AM CEST am 05. August 2015 (GMT +0200)
GT-Pavenstaedt | | Change Station
CLOSE
Current Station
Persönliche Wetterstationen
Location: Gütersloh, NORDRHEIN-WESTFALEN
Höhe: 240 ft
Wetterstationen in der Umgebung

Höhe 240 ft 51.91 °N, 8.35 °E | Updated 5 seconds ago

Clear
Heiter
58.5 °F
gefühlte 58.5 °F
N
0.4
Wind Wechselnd Wind aus Südwest
Gusts 2.5 mph

Heute
Max. -- | schwach -- °F
--% Regenrisiko
Gestern
Max. -- | schwach -- °F
Precip. -- inch
5:54 AM 9:10 PM
Drittes Viertel, 70% visible
Druck 30.12 inch
Sichtweite -9999.0 Meilen
Wolken
Taupunkt 54 °F
Feuchtigkeit 85%
Regen 0.00 inch
Schneehöhe Nicht verfügbar..
UV 1.0 von 12
Pollen Nicht verfügbar..
Luftqualität Nicht verfügbar..
Flu Activity Nicht verfügbar..
METAR EDLP 050550Z 17007KT CAVOK 14/10 Q1020 RMK ATIS TAN

More Conditions Fewer Conditions

Druck 30.12 inch
Sichtweite -9999.0 Meilen
Wolken
Taupunkt 54 °F
Feuchtigkeit 85%
Regen 0.00 inch
Schneehöhe Nicht verfügbar..
UV 1.0 von 12
Pollen Nicht verfügbar..
Luftqualität Nicht verfügbar..
Flu Activity Nicht verfügbar..
METAR EDLP 050550Z 17007KT CAVOK 14/10 Q1020 RMK ATIS TAN

More Conditions Fewer Conditions

10-Day Weather Forecast

×

Almanac

Astronomie

Aug. 05, 2015 Aufgang Untergang
Genaue Zeit
Bürgerliche Dämmerung
Nautische Dämmerung
Astronomische Dämmerung
Mond
Länge des sichtbaren Lichts
Tageslänge
Tomorrow will be .
, % of the Moon is Illuminated

Heutige Rekorde

Country Highs Country Lows

Community

WunderPhotos

Upload Photos

1,844,106 Fotos hochgeladen!

WunderBlogs® & News

Nearby

Luftqualität

  Luftqualität LQ Index Schadstoff
Not available.

Schneehöhe

Station Depth Höhe

Erdbebenaktivität

Stadt Distance Mag. Time & Date
Minimum magnitude displayed is 2.5.

küstennahe Wassertemperaturen

Ort Temperatur

Stations

Wetterstationen in der Umgebung

Stationsstandort Temp. Windchill Taupunkt Feuchtigkeit Wind Precip. Höhe Aktualisiert Art